sensor_id;sensor_type;location;lat;lon;timestamp;temperature;humidity
33093;DHT22;19456;46.104;12.908;2023-09-19T00:01:28;21.50;99.90
33093;DHT22;19456;46.104;12.908;2023-09-19T00:03:56;21.50;99.90
33093;DHT22;19456;46.104;12.908;2023-09-19T00:06:22;21.60;99.90
33093;DHT22;19456;46.104;12.908;2023-09-19T00:08:51;21.60;99.90
33093;DHT22;19456;46.104;12.908;2023-09-19T00:11:17;21.60;99.90
33093;DHT22;19456;46.104;12.908;2023-09-19T00:13:43;21.70;99.90
33093;DHT22;19456;46.104;12.908;2023-09-19T00:16:11;21.60;99.90
33093;DHT22;19456;46.104;12.908;2023-09-19T00:18:37;21.70;99.90
33093;DHT22;19456;46.104;12.908;2023-09-19T00:21:03;21.60;99.90
33093;DHT22;19456;46.104;12.908;2023-09-19T00:23:30;21.50;99.90
33093;DHT22;19456;46.104;12.908;2023-09-19T00:26:00;21.40;99.90
33093;DHT22;19456;46.104;12.908;2023-09-19T00:28:26;21.30;99.90
33093;DHT22;19456;46.104;12.908;2023-09-19T00:30:52;21.20;99.90
33093;DHT22;19456;46.104;12.908;2023-09-19T00:33:19;21.20;99.90
33093;DHT22;19456;46.104;12.908;2023-09-19T00:35:48;21.20;99.90
33093;DHT22;19456;46.104;12.908;2023-09-19T00:38:14;21.10;99.90
33093;DHT22;19456;46.104;12.908;2023-09-19T00:40:46;21.00;99.90
33093;DHT22;19456;46.104;12.908;2023-09-19T00:43:12;21.00;99.90
33093;DHT22;19456;46.104;12.908;2023-09-19T00:45:37;21.00;99.90
33093;DHT22;19456;46.104;12.908;2023-09-19T00:48:07;20.90;99.90
33093;DHT22;19456;46.104;12.908;2023-09-19T00:50:34;20.90;99.90
33093;DHT22;19456;46.104;12.908;2023-09-19T00:53:00;20.90;99.90
33093;DHT22;19456;46.104;12.908;2023-09-19T00:55:26;20.90;99.90
33093;DHT22;19456;46.104;12.908;2023-09-19T00:57:55;20.90;99.90
33093;DHT22;19456;46.104;12.908;2023-09-19T01:00:21;20.90;99.90
33093;DHT22;19456;46.104;12.908;2023-09-19T01:02:47;20.90;99.90
33093;DHT22;19456;46.104;12.908;2023-09-19T01:05:13;20.90;99.90
33093;DHT22;19456;46.104;12.908;2023-09-19T01:07:38;20.90;99.90
33093;DHT22;19456;46.104;12.908;2023-09-19T01:10:11;20.80;99.90
33093;DHT22;19456;46.104;12.908;2023-09-19T01:20:43;21.00;99.90
33093;DHT22;19456;46.104;12.908;2023-09-19T01:30:51;21.00;99.90
33093;DHT22;19456;46.104;12.908;2023-09-19T01:33:19;21.10;99.90
33093;DHT22;19456;46.104;12.908;2023-09-19T01:35:45;21.00;99.90
33093;DHT22;19456;46.104;12.908;2023-09-19T01:38:11;21.10;99.90
33093;DHT22;19456;46.104;12.908;2023-09-19T01:40:41;21.20;99.90
33093;DHT22;19456;46.104;12.908;2023-09-19T01:43:17;21.20;99.90
33093;DHT22;19456;46.104;12.908;2023-09-19T01:55:50;20.90;99.90
33093;DHT22;19456;46.104;12.908;2023-09-19T01:58:21;20.80;99.90
33093;DHT22;19456;46.104;12.908;2023-09-19T02:00:51;20.80;99.90
33093;DHT22;19456;46.104;12.908;2023-09-19T02:03:17;20.80;99.90
33093;DHT22;19456;46.104;12.908;2023-09-19T02:05:49;20.80;99.90
33093;DHT22;19456;46.104;12.908;2023-09-19T02:08:19;20.80;99.90
33093;DHT22;19456;46.104;12.908;2023-09-19T02:10:44;20.80;99.90
33093;DHT22;19456;46.104;12.908;2023-09-19T02:13:20;20.80;99.90
33093;DHT22;19456;46.104;12.908;2023-09-19T02:15:46;20.80;99.90
33093;DHT22;19456;46.104;12.908;2023-09-19T02:18:14;20.80;99.90
33093;DHT22;19456;46.104;12.908;2023-09-19T02:20:41;20.70;99.90
33093;DHT22;19456;46.104;12.908;2023-09-19T02:23:06;20.70;99.90
33093;DHT22;19456;46.104;12.908;2023-09-19T02:25:33;20.60;99.90
33093;DHT22;19456;46.104;12.908;2023-09-19T02:27:59;20.60;99.90
33093;DHT22;19456;46.104;12.908;2023-09-19T02:30:26;20.50;99.90
33093;DHT22;19456;46.104;12.908;2023-09-19T02:32:52;20.40;99.90
33093;DHT22;19456;46.104;12.908;2023-09-19T02:35:17;20.30;99.90
33093;DHT22;19456;46.104;12.908;2023-09-19T02:37:45;20.30;99.90
33093;DHT22;19456;46.104;12.908;2023-09-19T02:40:10;20.30;99.90
33093;DHT22;19456;46.104;12.908;2023-09-19T02:42:52;20.30;99.90
33093;DHT22;19456;46.104;12.908;2023-09-19T02:45:18;20.30;99.90
33093;DHT22;19456;46.104;12.908;2023-09-19T02:47:44;20.20;99.90
33093;DHT22;19456;46.104;12.908;2023-09-19T02:50:10;20.20;99.90
33093;DHT22;19456;46.104;12.908;2023-09-19T02:52:41;20.30;99.90
33093;DHT22;19456;46.104;12.908;2023-09-19T02:55:09;20.30;99.90
33093;DHT22;19456;46.104;12.908;2023-09-19T02:57:35;20.30;99.90
33093;DHT22;19456;46.104;12.908;2023-09-19T03:00:02;20.30;99.90
33093;DHT22;19456;46.104;12.908;2023-09-19T03:02:27;20.30;99.90
33093;DHT22;19456;46.104;12.908;2023-09-19T03:04:54;20.20;99.90
33093;DHT22;19456;46.104;12.908;2023-09-19T03:07:19;20.20;99.90
33093;DHT22;19456;46.104;12.908;2023-09-19T03:09:45;20.20;99.90
33093;DHT22;19456;46.104;12.908;2023-09-19T03:12:11;20.10;99.90
33093;DHT22;19456;46.104;12.908;2023-09-19T03:14:36;20.10;99.90
33093;DHT22;19456;46.104;12.908;2023-09-19T03:17:02;20.10;99.90
33093;DHT22;19456;46.104;12.908;2023-09-19T03:19:30;20.20;99.90
33093;DHT22;19456;46.104;12.908;2023-09-19T03:21:58;20.20;99.90
33093;DHT22;19456;46.104;12.908;2023-09-19T03:24:24;20.20;99.90
33093;DHT22;19456;46.104;12.908;2023-09-19T03:26:50;20.20;99.90
33093;DHT22;19456;46.104;12.908;2023-09-19T03:29:15;20.30;99.90
33093;DHT22;19456;46.104;12.908;2023-09-19T03:31:42;20.30;99.90
33093;DHT22;19456;46.104;12.908;2023-09-19T03:34:08;20.20;99.90
33093;DHT22;19456;46.104;12.908;2023-09-19T03:36:34;20.10;99.90
33093;DHT22;19456;46.104;12.908;2023-09-19T03:39:00;20.20;99.90
33093;DHT22;19456;46.104;12.908;2023-09-19T03:41:25;20.20;99.90
33093;DHT22;19456;46.104;12.908;2023-09-19T03:43:51;20.10;99.90
33093;DHT22;19456;46.104;12.908;2023-09-19T03:46:17;20.10;99.90
33093;DHT22;19456;46.104;12.908;2023-09-19T03:48:42;20.10;99.90
33093;DHT22;19456;46.104;12.908;2023-09-19T03:51:08;20.10;99.90
33093;DHT22;19456;46.104;12.908;2023-09-19T03:53:34;19.90;99.90
33093;DHT22;19456;46.104;12.908;2023-09-19T03:55:59;19.90;99.90
33093;DHT22;19456;46.104;12.908;2023-09-19T03:58:25;19.80;99.90
33093;DHT22;19456;46.104;12.908;2023-09-19T04:00:54;19.70;99.90
33093;DHT22;19456;46.104;12.908;2023-09-19T04:03:20;19.60;99.90
33093;DHT22;19456;46.104;12.908;2023-09-19T04:05:46;19.60;99.90
33093;DHT22;19456;46.104;12.908;2023-09-19T04:08:13;19.60;99.90
33093;DHT22;19456;46.104;12.908;2023-09-19T04:10:41;19.60;99.90
33093;DHT22;19456;46.104;12.908;2023-09-19T04:13:07;19.60;99.90
33093;DHT22;19456;46.104;12.908;2023-09-19T04:15:33;19.60;99.90
33093;DHT22;19456;46.104;12.908;2023-09-19T04:17:58;19.70;99.90
33093;DHT22;19456;46.104;12.908;2023-09-19T04:20:24;19.70;99.90
33093;DHT22;19456;46.104;12.908;2023-09-19T04:22:49;19.60;99.90
33093;DHT22;19456;46.104;12.908;2023-09-19T04:25:15;19.60;99.90
33093;DHT22;19456;46.104;12.908;2023-09-19T04:27:40;19.60;99.90
33093;DHT22;19456;46.104;12.908;2023-09-19T04:30:09;19.60;99.90
33093;DHT22;19456;46.104;12.908;2023-09-19T04:32:36;19.60;99.90
33093;DHT22;19456;46.104;12.908;2023-09-19T04:35:08;19.60;99.90
33093;DHT22;19456;46.104;12.908;2023-09-19T04:37:39;19.60;99.90
33093;DHT22;19456;46.104;12.908;2023-09-19T04:40:08;19.60;99.90
33093;DHT22;19456;46.104;12.908;2023-09-19T04:42:43;19.50;99.90
33093;DHT22;19456;46.104;12.908;2023-09-19T04:45:08;19.50;99.90
33093;DHT22;19456;46.104;12.908;2023-09-19T04:47:35;19.50;99.90
33093;DHT22;19456;46.104;12.908;2023-09-19T04:50:01;19.40;99.90
33093;DHT22;19456;46.104;12.908;2023-09-19T04:52:26;19.40;99.90
33093;DHT22;19456;46.104;12.908;2023-09-19T04:54:52;19.40;99.90
33093;DHT22;19456;46.104;12.908;2023-09-19T04:57:18;19.40;99.90
33093;DHT22;19456;46.104;12.908;2023-09-19T04:59:43;19.30;99.90
33093;DHT22;19456;46.104;12.908;2023-09-19T05:02:09;19.40;99.90
33093;DHT22;19456;46.104;12.908;2023-09-19T05:04:34;19.30;99.90
33093;DHT22;19456;46.104;12.908;2023-09-19T05:07:01;19.30;99.90
33093;DHT22;19456;46.104;12.908;2023-09-19T05:09:28;19.20;99.90
33093;DHT22;19456;46.104;12.908;2023-09-19T05:11:54;19.30;99.90
33093;DHT22;19456;46.104;12.908;2023-09-19T05:14:19;19.30;99.90
33093;DHT22;19456;46.104;12.908;2023-09-19T05:16:46;19.20;99.90
33093;DHT22;19456;46.104;12.908;2023-09-19T05:19:12;19.20;99.90
33093;DHT22;19456;46.104;12.908;2023-09-19T05:21:37;19.20;99.90
33093;DHT22;19456;46.104;12.908;2023-09-19T05:24:06;19.30;99.90
33093;DHT22;19456;46.104;12.908;2023-09-19T05:26:34;19.30;99.90
33093;DHT22;19456;46.104;12.908;2023-09-19T05:29:00;19.30;99.90
33093;DHT22;19456;46.104;12.908;2023-09-19T05:31:27;19.30;99.90
33093;DHT22;19456;46.104;12.908;2023-09-19T05:33:53;19.30;99.90
33093;DHT22;19456;46.104;12.908;2023-09-19T05:36:20;19.30;99.90
33093;DHT22;19456;46.104;12.908;2023-09-19T05:38:46;19.40;99.90
33093;DHT22;19456;46.104;12.908;2023-09-19T05:41:14;19.50;99.90
33093;DHT22;19456;46.104;12.908;2023-09-19T05:43:41;19.50;99.90
33093;DHT22;19456;46.104;12.908;2023-09-19T05:46:07;19.50;99.90
33093;DHT22;19456;46.104;12.908;2023-09-19T05:48:33;19.60;99.90
33093;DHT22;19456;46.104;12.908;2023-09-19T05:50:59;19.70;99.90
33093;DHT22;19456;46.104;12.908;2023-09-19T05:53:26;19.70;99.90
33093;DHT22;19456;46.104;12.908;2023-09-19T05:55:51;19.80;99.90
33093;DHT22;19456;46.104;12.908;2023-09-19T05:58:18;19.90;99.90
33093;DHT22;19456;46.104;12.908;2023-09-19T06:00:45;20.10;99.90
33093;DHT22;19456;46.104;12.908;2023-09-19T06:03:12;20.20;99.90
33093;DHT22;19456;46.104;12.908;2023-09-19T06:05:40;20.30;99.90
33093;DHT22;19456;46.104;12.908;2023-09-19T06:08:12;20.40;99.90
33093;DHT22;19456;46.104;12.908;2023-09-19T06:10:44;20.40;99.90
33093;DHT22;19456;46.104;12.908;2023-09-19T06:13:12;20.40;99.90
33093;DHT22;19456;46.104;12.908;2023-09-19T06:15:38;20.40;99.90
33093;DHT22;19456;46.104;12.908;2023-09-19T06:18:04;20.40;99.90
33093;DHT22;19456;46.104;12.908;2023-09-19T06:20:30;20.30;99.90
33093;DHT22;19456;46.104;12.908;2023-09-19T06:22:57;20.20;99.90
33093;DHT22;19456;46.104;12.908;2023-09-19T06:25:22;20.20;99.90
33093;DHT22;19456;46.104;12.908;2023-09-19T06:27:52;20.30;99.90
33093;DHT22;19456;46.104;12.908;2023-09-19T06:30:19;20.40;99.90
33093;DHT22;19456;46.104;12.908;2023-09-19T06:32:45;20.50;99.90
33093;DHT22;19456;46.104;12.908;2023-09-19T06:35:11;20.60;99.90
33093;DHT22;19456;46.104;12.908;2023-09-19T06:37:40;20.70;99.90
33093;DHT22;19456;46.104;12.908;2023-09-19T06:40:09;20.60;99.90
33093;DHT22;19456;46.104;12.908;2023-09-19T06:42:50;20.60;99.90
33093;DHT22;19456;46.104;12.908;2023-09-19T06:45:16;20.70;99.90
33093;DHT22;19456;46.104;12.908;2023-09-19T06:47:47;20.80;99.90
33093;DHT22;19456;46.104;12.908;2023-09-19T06:50:19;20.80;99.90
33093;DHT22;19456;46.104;12.908;2023-09-19T06:52:46;20.90;99.90
33093;DHT22;19456;46.104;12.908;2023-09-19T06:55:13;20.90;99.90
33093;DHT22;19456;46.104;12.908;2023-09-19T06:57:41;20.90;99.90
33093;DHT22;19456;46.104;12.908;2023-09-19T07:00:08;20.90;99.90
33093;DHT22;19456;46.104;12.908;2023-09-19T07:02:41;21.10;99.90
33093;DHT22;19456;46.104;12.908;2023-09-19T07:05:07;21.20;99.90
33093;DHT22;19456;46.104;12.908;2023-09-19T07:07:32;21.30;99.90
33093;DHT22;19456;46.104;12.908;2023-09-19T07:10:03;21.40;99.90
33093;DHT22;19456;46.104;12.908;2023-09-19T07:12:33;21.60;99.90
33093;DHT22;19456;46.104;12.908;2023-09-19T07:14:58;21.70;99.90
33093;DHT22;19456;46.104;12.908;2023-09-19T07:17:24;21.80;99.90
33093;DHT22;19456;46.104;12.908;2023-09-19T07:19:49;22.00;99.90
33093;DHT22;19456;46.104;12.908;2023-09-19T07:22:15;22.20;99.90
33093;DHT22;19456;46.104;12.908;2023-09-19T07:24:41;22.30;99.90
33093;DHT22;19456;46.104;12.908;2023-09-19T07:27:07;22.40;99.90
33093;DHT22;19456;46.104;12.908;2023-09-19T07:29:32;22.40;99.90
33093;DHT22;19456;46.104;12.908;2023-09-19T07:31:58;22.50;99.90
33093;DHT22;19456;46.104;12.908;2023-09-19T07:34:23;22.70;99.90
33093;DHT22;19456;46.104;12.908;2023-09-19T07:36:49;22.80;99.90
33093;DHT22;19456;46.104;12.908;2023-09-19T07:39:15;23.00;99.90
33093;DHT22;19456;46.104;12.908;2023-09-19T07:41:41;23.20;99.90
33093;DHT22;19456;46.104;12.908;2023-09-19T07:44:07;23.40;99.90
33093;DHT22;19456;46.104;12.908;2023-09-19T07:46:33;23.60;99.90
33093;DHT22;19456;46.104;12.908;2023-09-19T07:49:07;23.70;99.90
33093;DHT22;19456;46.104;12.908;2023-09-19T07:51:33;23.70;99.90
33093;DHT22;19456;46.104;12.908;2023-09-19T07:53:59;23.80;99.90
33093;DHT22;19456;46.104;12.908;2023-09-19T07:56:24;24.00;99.90
33093;DHT22;19456;46.104;12.908;2023-09-19T07:58:51;24.10;99.90
33093;DHT22;19456;46.104;12.908;2023-09-19T08:01:20;24.20;99.90
33093;DHT22;19456;46.104;12.908;2023-09-19T08:03:52;24.30;99.90
33093;DHT22;19456;46.104;12.908;2023-09-19T08:06:20;24.30;99.90
33093;DHT22;19456;46.104;12.908;2023-09-19T08:08:45;24.20;99.90
33093;DHT22;19456;46.104;12.908;2023-09-19T08:11:11;24.20;99.90
33093;DHT22;19456;46.104;12.908;2023-09-19T08:13:41;24.30;99.90
33093;DHT22;19456;46.104;12.908;2023-09-19T08:16:12;24.20;99.90
33093;DHT22;19456;46.104;12.908;2023-09-19T08:18:37;24.10;99.90
33093;DHT22;19456;46.104;12.908;2023-09-19T08:21:05;24.00;99.90
33093;DHT22;19456;46.104;12.908;2023-09-19T08:23:33;24.00;99.90
33093;DHT22;19456;46.104;12.908;2023-09-19T08:25:58;24.10;99.90
33093;DHT22;19456;46.104;12.908;2023-09-19T08:28:28;24.10;99.90
33093;DHT22;19456;46.104;12.908;2023-09-19T08:30:55;24.10;99.90
33093;DHT22;19456;46.104;12.908;2023-09-19T08:33:20;24.20;99.90
33093;DHT22;19456;46.104;12.908;2023-09-19T08:35:46;24.20;99.90
33093;DHT22;19456;46.104;12.908;2023-09-19T08:38:11;24.20;99.90
33093;DHT22;19456;46.104;12.908;2023-09-19T08:40:39;24.30;99.90
33093;DHT22;19456;46.104;12.908;2023-09-19T08:43:07;24.30;99.90
33093;DHT22;19456;46.104;12.908;2023-09-19T08:45:33;24.50;99.90
33093;DHT22;19456;46.104;12.908;2023-09-19T08:52:51;24.60;99.90
33093;DHT22;19456;46.104;12.908;2023-09-19T08:55:20;24.70;99.90
33093;DHT22;19456;46.104;12.908;2023-09-19T08:58:00;24.80;99.90
33093;DHT22;19456;46.104;12.908;2023-09-19T09:00:34;25.00;99.90
33093;DHT22;19456;46.104;12.908;2023-09-19T09:03:04;25.00;99.90
33093;DHT22;19456;46.104;12.908;2023-09-19T09:05:32;25.10;99.90
33093;DHT22;19456;46.104;12.908;2023-09-19T09:07:58;25.00;99.90
33093;DHT22;19456;46.104;12.908;2023-09-19T09:10:25;25.10;99.90
33093;DHT22;19456;46.104;12.908;2023-09-19T09:12:53;25.10;99.90
33093;DHT22;19456;46.104;12.908;2023-09-19T09:15:21;25.20;99.90
33093;DHT22;19456;46.104;12.908;2023-09-19T09:17:50;25.30;99.90
33093;DHT22;19456;46.104;12.908;2023-09-19T09:20:16;25.40;99.90
33093;DHT22;19456;46.104;12.908;2023-09-19T09:22:52;25.40;99.90
33093;DHT22;19456;46.104;12.908;2023-09-19T09:25:18;25.50;99.90
33093;DHT22;19456;46.104;12.908;2023-09-19T09:27:46;25.50;99.90
33093;DHT22;19456;46.104;12.908;2023-09-19T09:30:32;25.60;99.90
33093;DHT22;19456;46.104;12.908;2023-09-19T09:33:08;25.60;99.90
33093;DHT22;19456;46.104;12.908;2023-09-19T09:35:35;25.70;99.90
33093;DHT22;19456;46.104;12.908;2023-09-19T09:38:01;25.70;99.90
33093;DHT22;19456;46.104;12.908;2023-09-19T09:40:46;25.80;99.90
33093;DHT22;19456;46.104;12.908;2023-09-19T09:43:30;25.80;99.90
33093;DHT22;19456;46.104;12.908;2023-09-19T09:46:16;25.90;99.90
33093;DHT22;19456;46.104;12.908;2023-09-19T09:48:55;26.00;99.90
33093;DHT22;19456;46.104;12.908;2023-09-19T09:51:40;26.10;99.90
33093;DHT22;19456;46.104;12.908;2023-09-19T09:54:13;26.20;99.90
33093;DHT22;19456;46.104;12.908;2023-09-19T09:56:59;26.30;99.90
33093;DHT22;19456;46.104;12.908;2023-09-19T10:02:30;26.40;99.90
33093;DHT22;19456;46.104;12.908;2023-09-19T10:05:11;26.40;99.90
33093;DHT22;19456;46.104;12.908;2023-09-19T10:07:52;26.40;99.90
33093;DHT22;19456;46.104;12.908;2023-09-19T10:10:30;26.50;99.90
33093;DHT22;19456;46.104;12.908;2023-09-19T10:13:03;26.70;99.90
33093;DHT22;19456;46.104;12.908;2023-09-19T10:15:31;26.90;99.90
33093;DHT22;19456;46.104;12.908;2023-09-19T10:17:57;27.10;99.90
33093;DHT22;19456;46.104;12.908;2023-09-19T10:20:26;27.10;99.90
33093;DHT22;19456;46.104;12.908;2023-09-19T10:22:56;26.90;99.90
33093;DHT22;19456;46.104;12.908;2023-09-19T10:25:24;26.80;99.90
33093;DHT22;19456;46.104;12.908;2023-09-19T10:27:50;26.70;99.90
33093;DHT22;19456;46.104;12.908;2023-09-19T10:30:18;26.70;99.90
33093;DHT22;19456;46.104;12.908;2023-09-19T10:32:45;26.90;99.90
33093;DHT22;19456;46.104;12.908;2023-09-19T10:35:13;27.20;99.90
33093;DHT22;19456;46.104;12.908;2023-09-19T10:37:40;27.50;99.90
33093;DHT22;19456;46.104;12.908;2023-09-19T10:40:06;27.50;99.90
33093;DHT22;19456;46.104;12.908;2023-09-19T10:42:35;27.70;99.90
33093;DHT22;19456;46.104;12.908;2023-09-19T10:45:04;27.70;99.90
33093;DHT22;19456;46.104;12.908;2023-09-19T10:47:33;27.80;99.90
33093;DHT22;19456;46.104;12.908;2023-09-19T10:49:59;27.70;99.90
33093;DHT22;19456;46.104;12.908;2023-09-19T10:52:26;27.80;99.90
33093;DHT22;19456;46.104;12.908;2023-09-19T10:54:52;28.00;99.90
33093;DHT22;19456;46.104;12.908;2023-09-19T10:57:21;28.10;99.90
33093;DHT22;19456;46.104;12.908;2023-09-19T11:00:04;28.50;99.90
33093;DHT22;19456;46.104;12.908;2023-09-19T11:03:16;28.80;99.90
33093;DHT22;19456;46.104;12.908;2023-09-19T11:05:32;28.90;99.90
33093;DHT22;19456;46.104;12.908;2023-09-19T11:07:59;28.70;99.90
33093;DHT22;19456;46.104;12.908;2023-09-19T11:13:34;29.40;99.90
33093;DHT22;19456;46.104;12.908;2023-09-19T11:16:03;29.90;99.90
33093;DHT22;19456;46.104;12.908;2023-09-19T11:26:45;31.40;99.90
33093;DHT22;19456;46.104;12.908;2023-09-19T11:29:32;31.10;99.90
33093;DHT22;19456;46.104;12.908;2023-09-19T11:31:58;31.10;99.90
33093;DHT22;19456;46.104;12.908;2023-09-19T11:39:40;31.70;99.90
33093;DHT22;19456;46.104;12.908;2023-09-19T11:44:52;31.90;99.90
33093;DHT22;19456;46.104;12.908;2023-09-19T11:47:21;31.90;99.90
33093;DHT22;19456;46.104;12.908;2023-09-19T11:49:47;32.40;99.90
33093;DHT22;19456;46.104;12.908;2023-09-19T11:52:18;32.30;99.90
33093;DHT22;19456;46.104;12.908;2023-09-19T11:54:47;32.00;99.90
33093;DHT22;19456;46.104;12.908;2023-09-19T11:57:21;32.20;99.90
33093;DHT22;19456;46.104;12.908;2023-09-19T11:59:47;32.40;99.90
33093;DHT22;19456;46.104;12.908;2023-09-19T12:02:15;32.50;99.90
33093;DHT22;19456;46.104;12.908;2023-09-19T12:04:44;32.40;99.90
33093;DHT22;19456;46.104;12.908;2023-09-19T12:07:12;32.40;99.90
33093;DHT22;19456;46.104;12.908;2023-09-19T12:09:44;32.50;99.90
33093;DHT22;19456;46.104;12.908;2023-09-19T12:12:28;32.50;99.90
33093;DHT22;19456;46.104;12.908;2023-09-19T12:14:55;32.80;99.90
33093;DHT22;19456;46.104;12.908;2023-09-19T12:17:40;33.10;99.90
33093;DHT22;19456;46.104;12.908;2023-09-19T12:20:09;33.40;99.90
33093;DHT22;19456;46.104;12.908;2023-09-19T12:22:39;33.90;99.90
33093;DHT22;19456;46.104;12.908;2023-09-19T12:25:05;34.20;99.90
33093;DHT22;19456;46.104;12.908;2023-09-19T12:27:31;34.60;99.90
33093;DHT22;19456;46.104;12.908;2023-09-19T12:30:08;34.10;99.90
33093;DHT22;19456;46.104;12.908;2023-09-19T12:32:34;33.10;99.90
33093;DHT22;19456;46.104;12.908;2023-09-19T12:35:01;32.00;99.90
33093;DHT22;19456;46.104;12.908;2023-09-19T12:37:32;30.30;99.90
33093;DHT22;19456;46.104;12.908;2023-09-19T12:40:08;29.40;99.90
33093;DHT22;19456;46.104;12.908;2023-09-19T12:42:43;28.70;99.90
33093;DHT22;19456;46.104;12.908;2023-09-19T12:45:10;28.00;99.90
33093;DHT22;19456;46.104;12.908;2023-09-19T12:47:36;27.50;99.90
33093;DHT22;19456;46.104;12.908;2023-09-19T12:50:08;27.30;99.90
33093;DHT22;19456;46.104;12.908;2023-09-19T12:55:19;26.80;99.90
33093;DHT22;19456;46.104;12.908;2023-09-19T12:57:54;26.80;99.90
33093;DHT22;19456;46.104;12.908;2023-09-19T13:00:20;26.70;99.90
33093;DHT22;19456;46.104;12.908;2023-09-19T13:05:53;25.70;99.90
33093;DHT22;19456;46.104;12.908;2023-09-19T13:08:27;25.30;99.90
33093;DHT22;19456;46.104;12.908;2023-09-19T13:11:02;25.10;99.90
33093;DHT22;19456;46.104;12.908;2023-09-19T13:13:27;24.90;99.90
33093;DHT22;19456;46.104;12.908;2023-09-19T13:15:54;24.80;99.90
33093;DHT22;19456;46.104;12.908;2023-09-19T13:18:23;24.60;99.90
33093;DHT22;19456;46.104;12.908;2023-09-19T13:23:43;24.30;99.90
33093;DHT22;19456;46.104;12.908;2023-09-19T13:26:09;24.00;99.90
33093;DHT22;19456;46.104;12.908;2023-09-19T13:28:37;23.90;99.90
33093;DHT22;19456;46.104;12.908;2023-09-19T13:31:03;23.80;99.90
33093;DHT22;19456;46.104;12.908;2023-09-19T13:33:28;23.90;99.90
33093;DHT22;19456;46.104;12.908;2023-09-19T13:35:54;23.80;99.90
33093;DHT22;19456;46.104;12.908;2023-09-19T13:38:20;23.80;99.90
33093;DHT22;19456;46.104;12.908;2023-09-19T13:40:47;24.30;99.90
33093;DHT22;19456;46.104;12.908;2023-09-19T13:43:13;25.50;99.90
33093;DHT22;19456;46.104;12.908;2023-09-19T13:45:39;25.90;99.90
33093;DHT22;19456;46.104;12.908;2023-09-19T13:48:07;27.30;99.90
33093;DHT22;19456;46.104;12.908;2023-09-19T13:50:36;28.20;99.90
33093;DHT22;19456;46.104;12.908;2023-09-19T13:53:10;28.70;99.90
33093;DHT22;19456;46.104;12.908;2023-09-19T13:55:35;29.90;99.90
33093;DHT22;19456;46.104;12.908;2023-09-19T13:58:03;30.00;99.90
33093;DHT22;19456;46.104;12.908;2023-09-19T14:00:32;31.10;99.90
33093;DHT22;19456;46.104;12.908;2023-09-19T14:03:00;30.50;99.90
33093;DHT22;19456;46.104;12.908;2023-09-19T14:05:26;30.60;99.90
33093;DHT22;19456;46.104;12.908;2023-09-19T14:07:52;30.40;99.90
33093;DHT22;19456;46.104;12.908;2023-09-19T14:10:18;30.90;99.90
33093;DHT22;19456;46.104;12.908;2023-09-19T14:12:44;30.60;99.90
33093;DHT22;19456;46.104;12.908;2023-09-19T14:15:10;30.40;99.90
33093;DHT22;19456;46.104;12.908;2023-09-19T14:17:35;30.10;99.90
33093;DHT22;19456;46.104;12.908;2023-09-19T14:20:01;30.30;99.90
33093;DHT22;19456;46.104;12.908;2023-09-19T14:22:27;30.60;99.90
33093;DHT22;19456;46.104;12.908;2023-09-19T14:24:52;30.40;99.90
33093;DHT22;19456;46.104;12.908;2023-09-19T14:27:18;30.70;99.90
33093;DHT22;19456;46.104;12.908;2023-09-19T14:29:44;31.20;99.90
33093;DHT22;19456;46.104;12.908;2023-09-19T14:32:09;31.50;99.90
33093;DHT22;19456;46.104;12.908;2023-09-19T14:34:35;29.60;99.90
33093;DHT22;19456;46.104;12.908;2023-09-19T14:37:07;28.30;99.90
33093;DHT22;19456;46.104;12.908;2023-09-19T14:39:33;29.60;99.90
33093;DHT22;19456;46.104;12.908;2023-09-19T14:41:58;29.70;99.90
33093;DHT22;19456;46.104;12.908;2023-09-19T14:44:24;29.50;99.90
33093;DHT22;19456;46.104;12.908;2023-09-19T14:46:50;30.00;99.90
33093;DHT22;19456;46.104;12.908;2023-09-19T14:49:15;29.90;99.90
33093;DHT22;19456;46.104;12.908;2023-09-19T14:51:42;30.40;99.90
33093;DHT22;19456;46.104;12.908;2023-09-19T14:54:09;31.50;99.90
33093;DHT22;19456;46.104;12.908;2023-09-19T14:56:35;32.30;99.90
33093;DHT22;19456;46.104;12.908;2023-09-19T14:59:00;32.80;99.90
33093;DHT22;19456;46.104;12.908;2023-09-19T15:01:26;32.80;99.60
33093;DHT22;19456;46.104;12.908;2023-09-19T15:03:51;30.70;99.90
33093;DHT22;19456;46.104;12.908;2023-09-19T15:06:19;28.80;99.90
33093;DHT22;19456;46.104;12.908;2023-09-19T15:08:46;28.20;99.90
33093;DHT22;19456;46.104;12.908;2023-09-19T15:11:18;27.80;99.90
33093;DHT22;19456;46.104;12.908;2023-09-19T15:13:47;27.50;99.90
33093;DHT22;19456;46.104;12.908;2023-09-19T15:16:13;27.10;99.90
33093;DHT22;19456;46.104;12.908;2023-09-19T15:18:43;27.10;99.90
33093;DHT22;19456;46.104;12.908;2023-09-19T15:21:09;27.30;99.90
33093;DHT22;19456;46.104;12.908;2023-09-19T15:23:36;27.20;99.90
33093;DHT22;19456;46.104;12.908;2023-09-19T15:26:05;27.90;99.90
33093;DHT22;19456;46.104;12.908;2023-09-19T15:28:31;28.50;99.90
33093;DHT22;19456;46.104;12.908;2023-09-19T15:30:59;28.60;99.90
33093;DHT22;19456;46.104;12.908;2023-09-19T15:33:25;28.40;99.90
33093;DHT22;19456;46.104;12.908;2023-09-19T15:35:52;28.40;99.90
33093;DHT22;19456;46.104;12.908;2023-09-19T15:38:18;27.70;99.90
33093;DHT22;19456;46.104;12.908;2023-09-19T15:40:47;27.90;99.90
33093;DHT22;19456;46.104;12.908;2023-09-19T15:43:13;27.90;99.90
33093;DHT22;19456;46.104;12.908;2023-09-19T15:45:39;27.40;99.90
33093;DHT22;19456;46.104;12.908;2023-09-19T15:48:05;27.00;99.90
33093;DHT22;19456;46.104;12.908;2023-09-19T15:50:31;26.50;99.90
33093;DHT22;19456;46.104;12.908;2023-09-19T15:52:56;26.00;99.90
33093;DHT22;19456;46.104;12.908;2023-09-19T15:55:23;25.70;99.90
33093;DHT22;19456;46.104;12.908;2023-09-19T15:57:48;25.50;99.90
33093;DHT22;19456;46.104;12.908;2023-09-19T16:00:14;25.50;99.90
33093;DHT22;19456;46.104;12.908;2023-09-19T16:02:42;25.40;99.90
33093;DHT22;19456;46.104;12.908;2023-09-19T16:05:08;25.30;99.90
33093;DHT22;19456;46.104;12.908;2023-09-19T16:07:34;25.30;99.90
33093;DHT22;19456;46.104;12.908;2023-09-19T16:09:59;25.30;99.90
33093;DHT22;19456;46.104;12.908;2023-09-19T16:12:26;25.40;99.90
33093;DHT22;19456;46.104;12.908;2023-09-19T16:14:51;25.30;99.90
33093;DHT22;19456;46.104;12.908;2023-09-19T16:17:17;25.20;99.90
33093;DHT22;19456;46.104;12.908;2023-09-19T16:19:43;25.00;99.90
33093;DHT22;19456;46.104;12.908;2023-09-19T16:22:09;24.90;99.90